Bandon, OR

4:07 PM PDT on September 23, 2014 (GMT -0700)
Sexton Summit | Change Station
CLOSE
Current Station
Airport
Location: Sexton Summit,
Elevation: 3839 ft
Nearby Weather Stations

Elev 3839 ft 42.60 °N, 123.36 °W | Updated 11 minutes ago

Overcast
Overcast
66 °F
Feels Like 66 °F
N
14
Wind Variable Wind from SSW
Gusts 22 mph

Today
High -- | Low -- °F
--% Chance of Precip.
Yesterday
High -- | Low -- °F
Precip. -- in
7:06 AM 7:12 PM
Waning Crescent, 0% visible
Pressure 29.81 in
Visibility 10.0 miles
Clouds Mostly Cloudy 6500 ft
Mostly Cloudy 10000 ft
Dew Point 50 °F
Humidity 56%
Rainfall 0.00 in
Snow Depth 0 in , 0 in , 0 in
UV 2 out of 12
Pollen .40 out of 12
Air Quality Not available.
Flu Activity Not available.
METAR KSXT 232256Z AUTO 21012G19KT 10SM BKN065 BKN100 19/10 A2992 RMK AO2 SLP093 T01890100

More Conditions Fewer Conditions

Pressure 29.81 in
Visibility 10.0 miles
Clouds Mostly Cloudy 6500 ft
Mostly Cloudy 10000 ft
Dew Point 50 °F
Humidity 56%
Rainfall 0.00 in
Snow Depth 0 in , 0 in , 0 in
UV 2 out of 12
Pollen .40 out of 12
Air Quality Not available.
Flu Activity Not available.
METAR KSXT 232256Z AUTO 21012G19KT 10SM BKN065 BKN100 19/10 A2992 RMK AO2 SLP093 T01890100

More Conditions Fewer Conditions

10-Day Weather Forecast

Almanac

Astronomy

Sep. 23, 2014 Rise Set
Actual Time 7:06 AM PDT 7:12 PM PDT
Civil Twilight 6:37 AM PDT 7:41 PM PDT
Nautical Twilight 6:04 AM PDT 8:14 PM PDT
Astronomical Twilight 5:30 AM PDT 8:48 PM PDT
Moon 6:35 AM PDT 6:54 PM PDT
Length of Visible Light 13h 03m
Length of Day
12h 06m
Tomorrow will be 2m 54s shorter.
Waning Crescent, 0% of the Moon is Illuminated
Today
Waning Crescent
Sep 24
New
Oct 1
First Quarter
Oct 8
Full
Oct 15
Last Quarter

Today's Extremes

State Highs State Lows

Community

WunderPhotos

Upload Photos

1,755,824 photos uploaded!

WunderBlogs® & News

Nearby

Snow Depth

Station Depth Elevation
Blue Mountain Spring 0 in 5900 ft
Diamond Lake 0 in 5315 ft
Clackamas Lake 0 in 3400 ft
Irish Taylor 0 in 5500 ft
North Fork 0 in 3120 ft

Earthquake Activity

City Distance Mag. Time & Date
No recent earthquake activity has been reported nearby.
Minimum magnitude displayed is 2.5.

Coastal Water Temperatures

Place Temperature
Port Orford, OR 57.9 °F
Charleston, OR 60.1 °F
South Beach, OR 57.0 °F

Nearby Weather Stations